KPVW/PVW METAR and TAF weather

Enter ICAO airport designator
Station Type Date Time Source
KPVW METAR 2021/05/12 23:55 UTC NOAA

KPVW 122355Z AUTO 08008KT 10SM SCT050 17/04 A3027 RMK AO2 T01650035 10178 20134


Station Type Date Time Source
KPVW Decoded METAR 2021/05/12 23:55 UTC NOAA

Plainview, Hale County Airport, TX, United States (KPVW) 34-10-05N 101-43-02W
May 12, 2021 - 07:55 PM EDT / 2021.05.12 2355 UTC
Wind: from the E (080 degrees) at 9 MPH (8 KT):0
Visibility: 10 mile(s):0
Sky conditions: partly cloudy
Temperature: 61.7 F (16.5 C)
Dew Point: 38.3 F (3.5 C)
Relative Humidity: 41%
Pressure (altimeter): 30.27 in. Hg (1025 hPa)
ob: KPVW 122355Z AUTO 08008KT 10SM SCT050 17/04 A3027 RMK AO2 T01650035 10178 20134
cycle: 0

Station Type Date Time Source
KPVW TAF 2021/05/12 18:21 UTC NOAA

TAF KPVW 121720Z 1218/1318 08011KT P6SM SCT050
TEMPO 1218/1220 05011KT P6SM BKN030
FM130900 VRB06KT 6SM BR BKN008
FM131500 18011KT P6SM SCT040

Example: see airport list